createdAt,value
2018-12-22T00:02:12.709Z,0.80
2018-12-22T00:04:40.145Z,0.80
2018-12-22T00:07:07.616Z,0.90
2018-12-22T00:09:35.054Z,0.90
2018-12-22T00:12:03.016Z,0.90
2018-12-22T00:14:30.467Z,0.90
2018-12-22T00:16:57.937Z,1.00
2018-12-22T00:19:25.381Z,1.00
2018-12-22T00:21:52.831Z,1.00
2018-12-22T00:24:20.270Z,1.10
2018-12-22T00:26:47.735Z,0.87
2018-12-22T00:29:15.188Z,0.90
2018-12-22T00:31:42.652Z,0.90
2018-12-22T00:34:10.117Z,0.90
2018-12-22T00:36:37.556Z,0.90
2018-12-22T00:39:05.961Z,0.87
2018-12-22T00:41:33.498Z,0.93
2018-12-22T00:44:00.972Z,0.90
2018-12-22T00:46:28.407Z,0.90
2018-12-22T00:48:55.869Z,0.90
2018-12-22T00:51:23.317Z,0.87
2018-12-22T00:53:50.785Z,1.00
2018-12-22T00:56:18.214Z,1.13
2018-12-22T00:58:45.677Z,0.90
2018-12-22T01:01:13.125Z,0.90
2018-12-22T01:03:40.599Z,0.90
2018-12-22T01:06:08.054Z,0.80
2018-12-22T01:08:35.499Z,0.80
2018-12-22T01:11:02.967Z,0.90
2018-12-22T01:13:30.417Z,0.90
2018-12-22T01:15:57.860Z,0.80
2018-12-22T01:18:25.330Z,0.80
2018-12-22T01:20:52.769Z,0.90
2018-12-22T01:23:20.280Z,0.80
2018-12-22T01:25:47.793Z,1.00
2018-12-22T01:28:15.266Z,0.80
2018-12-22T01:30:42.721Z,0.80
2018-12-22T01:33:10.166Z,1.03
2018-12-22T01:35:37.656Z,0.90
2018-12-22T01:38:05.349Z,0.83
2018-12-22T01:40:32.761Z,0.80
2018-12-22T01:43:00.224Z,0.90
2018-12-22T01:45:27.685Z,1.00
2018-12-22T01:47:55.132Z,0.97
2018-12-22T01:50:22.711Z,1.00
2018-12-22T01:52:50.264Z,0.80
2018-12-22T01:55:17.722Z,1.00
2018-12-22T01:57:45.170Z,0.80
2018-12-22T02:00:12.870Z,0.80
2018-12-22T02:02:40.308Z,0.90
2018-12-22T02:05:07.783Z,0.90
2018-12-22T02:07:35.234Z,0.90
2018-12-22T02:10:02.969Z,0.90
2018-12-22T02:12:30.423Z,0.90
2018-12-22T02:14:57.903Z,0.80
2018-12-22T02:17:25.341Z,0.80
2018-12-22T02:19:52.781Z,0.80
2018-12-22T02:22:20.257Z,1.00
2018-12-22T02:24:47.711Z,1.13
2018-12-22T02:27:15.176Z,0.93
2018-12-22T02:29:42.626Z,1.00
2018-12-22T02:32:10.090Z,0.93
2018-12-22T02:34:37.528Z,1.10
2018-12-22T02:37:05.077Z,1.00
2018-12-22T02:39:32.520Z,1.00
2018-12-22T02:41:59.992Z,2.20
2018-12-22T02:44:27.433Z,1.30
2018-12-22T02:46:54.922Z,1.00
2018-12-22T02:49:22.361Z,1.00
2018-12-22T02:51:49.822Z,1.17
2018-12-22T02:54:17.268Z,1.20
2018-12-22T02:56:44.742Z,1.30
2018-12-22T02:59:12.492Z,1.00
2018-12-22T03:01:39.952Z,1.07
2018-12-22T03:04:07.428Z,1.40
2018-12-22T03:06:34.886Z,1.30
2018-12-22T03:09:02.786Z,1.20
2018-12-22T03:11:30.227Z,0.97
2018-12-22T03:13:57.804Z,0.80
2018-12-22T03:16:25.258Z,0.90
2018-12-22T03:18:52.968Z,0.90
2018-12-22T03:21:20.502Z,0.83
2018-12-22T03:23:47.957Z,0.93
2018-12-22T03:26:15.403Z,1.00
2018-12-22T03:28:42.861Z,0.90
2018-12-22T03:31:10.591Z,0.87
2018-12-22T03:33:38.094Z,0.80
2018-12-22T03:36:05.554Z,0.80
2018-12-22T03:38:33.751Z,0.80
2018-12-22T03:41:01.457Z,0.90
2018-12-22T03:43:28.941Z,0.80
2018-12-22T03:45:56.377Z,0.90
2018-12-22T03:48:23.838Z,0.80
2018-12-22T03:50:51.275Z,0.80
2018-12-22T03:53:18.792Z,0.90
2018-12-22T03:55:46.278Z,0.93
2018-12-22T03:58:13.737Z,1.00
2018-12-22T04:00:41.223Z,0.80
2018-12-22T04:03:08.747Z,0.87
2018-12-22T04:05:36.185Z,0.83
2018-12-22T04:08:03.652Z,0.90
2018-12-22T04:10:31.238Z,0.80
2018-12-22T04:12:58.686Z,0.90
2018-12-22T04:15:26.226Z,0.90
2018-12-22T04:17:53.678Z,0.80
2018-12-22T04:20:21.292Z,0.90
2018-12-22T04:22:48.729Z,0.80
2018-12-22T04:25:16.224Z,0.90
2018-12-22T04:27:43.725Z,1.10
2018-12-22T04:30:11.191Z,0.90
2018-12-22T04:32:38.629Z,0.90
2018-12-22T04:35:06.180Z,0.90
2018-12-22T04:37:33.629Z,0.90
2018-12-22T04:40:01.111Z,0.90
2018-12-22T04:42:28.556Z,0.90
2018-12-22T04:44:56.000Z,0.80
2018-12-22T04:47:23.461Z,1.00
2018-12-22T04:49:50.921Z,0.90
2018-12-22T04:52:18.394Z,1.10
2018-12-22T04:54:46.207Z,1.07
2018-12-22T04:57:13.666Z,1.00
2018-12-22T04:59:43.138Z,0.80
2018-12-22T05:02:10.637Z,0.90
2018-12-22T05:04:38.098Z,0.97
2018-12-22T05:07:05.552Z,0.90
2018-12-22T05:09:33.002Z,1.00
2018-12-22T05:12:01.150Z,0.77
2018-12-22T05:14:28.592Z,0.90
2018-12-22T05:16:56.060Z,0.87
2018-12-22T05:19:23.601Z,0.90
2018-12-22T05:21:51.157Z,1.03
2018-12-22T05:24:18.625Z,0.90
2018-12-22T05:26:46.145Z,0.87
2018-12-22T05:29:13.589Z,0.93
2018-12-22T05:31:41.046Z,0.87
2018-12-22T05:34:08.491Z,1.00
2018-12-22T05:36:35.994Z,0.80
2018-12-22T05:39:05.577Z,0.90
2018-12-22T05:41:33.038Z,1.00
2018-12-22T05:44:00.477Z,0.80
2018-12-22T05:46:27.926Z,0.90
2018-12-22T05:48:55.465Z,1.00
2018-12-22T05:51:22.912Z,0.90
2018-12-22T05:53:50.373Z,0.90
2018-12-22T05:56:17.821Z,0.80
2018-12-22T05:58:45.278Z,1.00
2018-12-22T06:01:12.737Z,0.90
2018-12-22T06:03:40.249Z,0.80
2018-12-22T06:06:07.781Z,0.90
2018-12-22T06:08:35.225Z,0.80
2018-12-22T06:11:02.698Z,0.90
2018-12-22T06:13:30.157Z,1.10
2018-12-22T06:15:57.604Z,1.00
2018-12-22T06:18:25.065Z,1.00
2018-12-22T06:20:52.519Z,1.00
2018-12-22T06:23:19.970Z,1.10
2018-12-22T06:25:47.437Z,1.00
2018-12-22T06:28:14.889Z,1.03
2018-12-22T06:30:42.369Z,1.30
2018-12-22T06:33:09.795Z,1.10
2018-12-22T06:35:37.541Z,1.00
2018-12-22T06:38:04.988Z,1.20
2018-12-22T06:40:32.454Z,1.20
2018-12-22T06:42:59.900Z,1.27
2018-12-22T06:45:27.378Z,1.00
2018-12-22T06:47:54.818Z,1.00
2018-12-22T06:50:22.297Z,1.10
2018-12-22T06:52:49.741Z,0.90
2018-12-22T06:55:17.202Z,1.00
2018-12-22T06:57:44.662Z,1.00
2018-12-22T07:00:17.686Z,1.00
2018-12-22T07:02:41.585Z,0.90
2018-12-22T07:05:09.022Z,1.03
2018-12-22T07:07:36.480Z,0.90
2018-12-22T07:10:06.569Z,1.10
2018-12-22T07:12:34.846Z,1.10
2018-12-22T07:15:02.375Z,1.00
2018-12-22T07:17:29.845Z,0.90
2018-12-22T07:19:57.292Z,1.20
2018-12-22T07:22:24.757Z,1.20
2018-12-22T07:24:52.207Z,1.00
2018-12-22T07:27:19.682Z,1.40
2018-12-22T07:29:47.136Z,1.13
2018-12-22T07:32:14.601Z,1.20
2018-12-22T07:34:42.033Z,0.93
2018-12-22T07:37:09.523Z,1.13
2018-12-22T07:39:36.994Z,1.10
2018-12-22T07:42:04.449Z,0.97
2018-12-22T07:44:31.926Z,1.10
2018-12-22T07:46:59.370Z,0.97
2018-12-22T07:49:26.836Z,1.03
2018-12-22T07:51:54.270Z,1.20
2018-12-22T07:54:21.745Z,1.00
2018-12-22T07:56:49.233Z,1.20
2018-12-22T07:59:16.669Z,1.10
2018-12-22T08:01:44.120Z,1.30
2018-12-22T08:04:11.581Z,1.00
2018-12-22T08:06:39.029Z,2.33
2018-12-22T08:09:06.745Z,1.90
2018-12-22T08:11:34.194Z,1.60
2018-12-22T08:14:01.725Z,1.67
2018-12-22T08:16:29.170Z,1.93
2018-12-22T08:18:56.654Z,2.00
2018-12-22T08:21:24.139Z,1.67
2018-12-22T08:23:51.686Z,1.90
2018-12-22T08:26:20.673Z,1.50
2018-12-22T08:28:48.721Z,1.30
2018-12-22T08:31:17.073Z,1.43
2018-12-22T08:33:44.534Z,1.40
2018-12-22T08:36:11.998Z,1.00
2018-12-22T08:38:39.464Z,1.03
2018-12-22T08:41:06.954Z,1.70
2018-12-22T08:43:34.410Z,1.37
2018-12-22T08:46:02.984Z,1.30
2018-12-22T08:48:30.422Z,1.40
2018-12-22T08:50:57.890Z,1.13
2018-12-22T08:53:25.346Z,1.20
2018-12-22T08:55:52.838Z,1.23
2018-12-22T08:58:20.277Z,1.00
2018-12-22T09:00:52.126Z,1.10
2018-12-22T09:03:17.205Z,1.17
2018-12-22T09:05:44.695Z,1.05
2018-12-22T09:08:12.170Z,1.27
2018-12-22T09:10:39.626Z,1.77
2018-12-22T09:13:07.102Z,1.20
2018-12-22T09:15:34.734Z,1.50
2018-12-22T09:18:02.207Z,1.83
2018-12-22T09:20:31.707Z,2.23
2018-12-22T09:22:59.135Z,1.27
2018-12-22T09:25:26.601Z,1.30
2018-12-22T09:27:54.063Z,1.30
2018-12-22T09:30:21.513Z,1.57
2018-12-22T09:32:49.078Z,1.30
2018-12-22T09:35:16.530Z,1.60
2018-12-22T09:37:43.989Z,3.47
2018-12-22T09:40:11.421Z,1.60
2018-12-22T09:42:38.895Z,1.22
2018-12-22T09:45:06.877Z,1.60
2018-12-22T09:47:36.350Z,1.87
2018-12-22T09:50:07.069Z,1.27
2018-12-22T09:52:35.462Z,1.10
2018-12-22T09:55:02.992Z,1.50
2018-12-22T09:57:30.501Z,1.30
2018-12-22T09:59:57.966Z,1.77
2018-12-22T10:02:25.438Z,1.40
2018-12-22T10:04:52.918Z,1.60
2018-12-22T10:07:20.373Z,1.40
2018-12-22T10:09:47.837Z,2.10
2018-12-22T10:12:15.289Z,1.20
2018-12-22T10:14:42.771Z,1.20
2018-12-22T10:17:10.229Z,1.25
2018-12-22T10:19:37.681Z,1.57
2018-12-22T10:22:05.316Z,1.45
2018-12-22T10:24:32.775Z,1.73
2018-12-22T10:27:00.236Z,1.70
2018-12-22T10:29:27.720Z,1.37
2018-12-22T10:31:55.169Z,1.30
2018-12-22T10:34:22.646Z,1.20
2018-12-22T10:36:50.090Z,1.50
2018-12-22T10:39:17.541Z,1.10
2018-12-22T10:41:45.050Z,1.47
2018-12-22T10:44:12.602Z,1.40
2018-12-22T10:46:40.078Z,1.30
2018-12-22T10:49:07.548Z,1.60
2018-12-22T10:51:35.024Z,1.70
2018-12-22T10:54:02.476Z,1.40
2018-12-22T10:56:29.945Z,1.40
2018-12-22T10:58:57.490Z,1.42
2018-12-22T11:01:26.580Z,2.12
2018-12-22T11:03:54.398Z,2.00
2018-12-22T11:06:21.883Z,1.90
2018-12-22T11:08:49.337Z,1.45
2018-12-22T11:11:16.827Z,1.85
2018-12-22T11:13:44.273Z,1.50
2018-12-22T11:16:11.766Z,1.55
2018-12-22T11:18:39.328Z,2.27
2018-12-22T11:21:06.816Z,1.77
2018-12-22T11:23:34.253Z,1.82
2018-12-22T11:26:01.724Z,2.00
2018-12-22T11:28:29.180Z,2.30
2018-12-22T11:30:56.640Z,1.62
2018-12-22T11:33:24.091Z,1.80
2018-12-22T11:35:51.566Z,2.20
2018-12-22T11:38:19.038Z,1.80
2018-12-22T11:40:46.513Z,1.95
2018-12-22T11:43:13.988Z,1.30
2018-12-22T11:45:41.433Z,1.80
2018-12-22T11:48:12.841Z,1.50
2018-12-22T11:50:40.298Z,1.82
2018-12-22T11:53:07.785Z,1.82
2018-12-22T11:55:35.242Z,1.60
2018-12-22T11:58:02.723Z,1.82
2018-12-22T12:00:30.168Z,1.80
2018-12-22T12:02:57.642Z,2.13
2018-12-22T12:05:25.082Z,1.80
2018-12-22T12:07:52.580Z,1.70
2018-12-22T12:10:20.029Z,1.73
2018-12-22T12:12:47.465Z,1.17
2018-12-22T12:15:18.078Z,1.50
2018-12-22T12:18:02.891Z,1.60
2018-12-22T12:20:30.312Z,1.90
2018-12-22T12:22:57.771Z,1.03
2018-12-22T12:25:25.238Z,1.07
2018-12-22T12:27:52.693Z,1.20
2018-12-22T12:30:20.166Z,1.37
2018-12-22T12:32:47.634Z,1.00
2018-12-22T12:35:15.118Z,1.00
2018-12-22T12:37:42.577Z,1.25
2018-12-22T12:40:11.803Z,1.47
2018-12-22T12:42:39.255Z,1.20
2018-12-22T12:45:11.209Z,1.02
2018-12-22T12:47:38.667Z,1.30
2018-12-22T12:50:11.469Z,1.22
2018-12-22T12:52:38.957Z,1.32
2018-12-22T12:55:10.798Z,1.32
2018-12-22T12:57:38.609Z,1.40
2018-12-22T13:00:10.748Z,1.20
2018-12-22T13:02:38.321Z,1.20
2018-12-22T13:05:07.758Z,1.35
2018-12-22T13:07:35.217Z,1.65
2018-12-22T13:10:03.629Z,1.50
2018-12-22T13:12:34.068Z,1.22
2018-12-22T13:15:01.719Z,1.40
2018-12-22T13:17:29.286Z,1.30
2018-12-22T13:19:56.759Z,1.80
2018-12-22T13:22:24.250Z,1.40
2018-12-22T13:24:51.702Z,1.40
2018-12-22T13:27:19.243Z,1.40
2018-12-22T13:29:46.695Z,1.20
2018-12-22T13:32:14.166Z,1.10
2018-12-22T13:34:43.606Z,1.20
2018-12-22T13:37:11.074Z,1.20
2018-12-22T13:39:38.537Z,1.30
2018-12-22T13:42:06.004Z,1.30
2018-12-22T13:44:33.466Z,1.35
2018-12-22T13:47:00.974Z,1.20
2018-12-22T13:49:28.445Z,1.30
2018-12-22T13:51:56.002Z,1.45
2018-12-22T13:54:23.519Z,1.50
2018-12-22T13:56:50.976Z,1.75
2018-12-22T13:59:18.451Z,1.52
2018-12-22T14:01:47.042Z,1.60
2018-12-22T14:04:15.250Z,2.00
2018-12-22T14:06:42.749Z,1.60
2018-12-22T14:09:10.222Z,1.65
2018-12-22T14:11:37.674Z,2.27
2018-12-22T14:14:05.161Z,1.85
2018-12-22T14:16:34.448Z,2.85
2018-12-22T14:19:02.025Z,1.72
2018-12-22T14:21:29.462Z,1.90
2018-12-22T14:24:10.586Z,2.00
2018-12-22T14:26:38.038Z,1.87
2018-12-22T14:29:05.516Z,2.40
2018-12-22T14:31:32.958Z,2.30
2018-12-22T14:34:11.398Z,2.05
2018-12-22T14:36:38.867Z,2.50
2018-12-22T14:39:07.695Z,2.30
2018-12-22T14:41:35.153Z,2.50
2018-12-22T14:44:02.793Z,1.70
2018-12-22T14:46:30.251Z,2.40
2018-12-22T14:48:57.703Z,2.25
2018-12-22T14:51:25.174Z,1.82
2018-12-22T14:53:52.625Z,2.90
2018-12-22T14:56:31.721Z,2.40
2018-12-22T14:58:59.177Z,4.15
2018-12-22T15:01:26.676Z,2.85
2018-12-22T15:03:54.126Z,2.87
2018-12-22T15:06:21.614Z,2.42
2018-12-22T15:08:49.065Z,1.90
2018-12-22T15:11:16.625Z,2.35
2018-12-22T15:13:44.101Z,3.00
2018-12-22T15:16:11.575Z,2.10
2018-12-22T15:18:39.098Z,1.70
2018-12-22T15:21:06.567Z,2.02
2018-12-22T15:23:34.025Z,3.22
2018-12-22T15:26:01.480Z,1.77
2018-12-22T15:28:28.942Z,2.25
2018-12-22T15:30:56.402Z,2.22
2018-12-22T15:33:23.861Z,2.83
2018-12-22T15:35:51.354Z,2.20
2018-12-22T15:38:18.835Z,2.80
2018-12-22T15:40:46.290Z,2.27
2018-12-22T15:43:13.772Z,2.20
2018-12-22T15:45:41.237Z,2.98
2018-12-22T15:48:08.752Z,2.58
2018-12-22T15:50:39.621Z,3.37
2018-12-22T15:53:07.086Z,2.10
2018-12-22T15:55:34.600Z,2.72
2018-12-22T15:58:02.066Z,2.10
2018-12-22T16:00:29.514Z,2.80
2018-12-22T16:02:56.980Z,2.00
2018-12-22T16:05:24.426Z,2.75
2018-12-22T16:07:51.902Z,3.05
2018-12-22T16:10:19.354Z,3.25
2018-12-22T16:12:46.799Z,1.95
2018-12-22T16:15:19.029Z,2.10
2018-12-22T16:17:46.512Z,2.27
2018-12-22T16:20:13.973Z,2.25
2018-12-22T16:22:46.093Z,2.17
2018-12-22T16:25:13.650Z,2.58
2018-12-22T16:27:41.581Z,1.77
2018-12-22T16:30:19.506Z,1.70
2018-12-22T16:32:46.968Z,2.05
2018-12-22T16:35:15.889Z,3.10
2018-12-22T16:37:43.362Z,3.95
2018-12-22T16:40:12.680Z,1.20
2018-12-22T16:42:40.385Z,2.77
2018-12-22T16:45:13.252Z,2.60
2018-12-22T16:47:40.720Z,2.77
2018-12-22T16:50:10.919Z,2.95
2018-12-22T16:52:39.021Z,2.52
2018-12-22T16:55:15.194Z,1.80
2018-12-22T16:57:50.030Z,1.37
2018-12-22T17:00:23.241Z,2.30
2018-12-22T17:02:52.594Z,1.50
2018-12-22T17:05:20.305Z,1.72
2018-12-22T17:07:47.768Z,2.45
2018-12-22T17:10:15.241Z,2.27
2018-12-22T17:12:42.681Z,2.10
2018-12-22T17:15:21.608Z,1.40
2018-12-22T17:17:42.652Z,2.50
2018-12-22T17:20:13.048Z,2.37
2018-12-22T17:22:45.242Z,1.67
2018-12-22T17:25:15.987Z,1.15
2018-12-22T17:27:43.483Z,1.22
2018-12-22T17:30:10.955Z,1.00
2018-12-22T17:32:39.184Z,1.20
2018-12-22T17:35:10.601Z,1.87
2018-12-22T17:37:38.074Z,1.25
2018-12-22T17:40:09.524Z,1.30
2018-12-22T17:42:37.231Z,1.82
2018-12-22T17:45:08.349Z,1.40
2018-12-22T17:47:35.818Z,1.12
2018-12-22T17:50:04.698Z,1.35
2018-12-22T17:52:32.186Z,1.85
2018-12-22T17:55:00.265Z,1.52
2018-12-22T17:57:27.853Z,1.40
2018-12-22T17:59:55.402Z,1.67
2018-12-22T18:02:22.851Z,1.90
2018-12-22T18:04:50.309Z,1.40
2018-12-22T18:07:17.783Z,1.70
2018-12-22T18:09:45.251Z,1.80
2018-12-22T18:12:12.698Z,1.30
2018-12-22T18:14:40.367Z,1.70
2018-12-22T18:17:07.813Z,1.92
2018-12-22T18:19:35.289Z,2.00
2018-12-22T18:22:02.831Z,2.27
2018-12-22T18:24:30.305Z,2.22
2018-12-22T18:26:57.767Z,2.50
2018-12-22T18:29:25.280Z,2.60
2018-12-22T18:31:52.905Z,3.05
2018-12-22T18:34:20.394Z,3.08
2018-12-22T18:36:47.849Z,2.75
2018-12-22T18:39:15.400Z,2.95
2018-12-22T18:41:42.923Z,2.52
2018-12-22T18:44:10.497Z,1.92
2018-12-22T18:46:37.937Z,2.30
2018-12-22T18:49:05.443Z,1.65
2018-12-22T18:51:32.902Z,2.75
2018-12-22T18:54:00.525Z,2.30
2018-12-22T18:56:28.013Z,2.65
2018-12-22T18:58:56.504Z,2.62
2018-12-22T19:01:23.967Z,2.50
2018-12-22T19:03:51.421Z,2.45
2018-12-22T19:06:18.898Z,2.90
2018-12-22T19:08:46.511Z,3.42
2018-12-22T19:11:14.290Z,2.98
2018-12-22T19:13:41.762Z,2.35
2018-12-22T19:16:09.229Z,3.25
2018-12-22T19:18:36.669Z,4.53
2018-12-22T19:21:04.145Z,2.30
2018-12-22T19:23:31.596Z,2.40
2018-12-22T19:25:59.058Z,2.60
2018-12-22T19:28:26.530Z,3.20
2018-12-22T19:30:54.010Z,2.65
2018-12-22T19:33:21.476Z,2.95
2018-12-22T19:35:48.973Z,2.90
2018-12-22T19:38:17.262Z,2.67
2018-12-22T19:40:44.872Z,2.22
2018-12-22T19:43:12.334Z,2.05
2018-12-22T19:45:40.715Z,2.25
2018-12-22T19:48:08.197Z,3.65
2018-12-22T19:50:35.657Z,3.90
2018-12-22T19:53:03.142Z,3.83
2018-12-22T19:55:30.600Z,2.70
2018-12-22T19:57:58.129Z,2.55
2018-12-22T20:00:25.601Z,2.65
2018-12-22T20:02:53.151Z,2.22
2018-12-22T20:05:20.607Z,2.12
2018-12-22T20:07:48.448Z,2.20
2018-12-22T20:10:15.947Z,2.08
2018-12-22T20:12:43.406Z,2.02
2018-12-22T20:15:10.838Z,1.90
2018-12-22T20:17:38.460Z,2.20
2018-12-22T20:20:07.772Z,1.90
2018-12-22T20:22:35.221Z,2.60
2018-12-22T20:25:03.545Z,2.00
2018-12-22T20:27:31.029Z,2.12
2018-12-22T20:29:58.483Z,2.35
2018-12-22T20:32:25.938Z,2.50
2018-12-22T20:34:53.415Z,2.42
2018-12-22T20:37:20.848Z,1.90
2018-12-22T20:39:48.322Z,2.20
2018-12-22T20:42:15.774Z,2.60
2018-12-22T20:44:43.229Z,2.20
2018-12-22T20:47:10.685Z,2.05
2018-12-22T20:49:38.170Z,2.22
2018-12-22T20:52:05.618Z,2.20
2018-12-22T20:54:33.086Z,2.50
2018-12-22T20:57:00.562Z,2.52
2018-12-22T20:59:28.006Z,2.08
2018-12-22T21:01:55.469Z,2.20
2018-12-22T21:04:22.955Z,2.22
2018-12-22T21:06:50.379Z,1.95
2018-12-22T21:09:17.850Z,2.30
2018-12-22T21:11:45.367Z,2.45
2018-12-22T21:14:12.834Z,2.47
2018-12-22T21:16:40.297Z,1.67
2018-12-22T21:19:08.075Z,3.33
2018-12-22T21:21:35.522Z,1.90
2018-12-22T21:24:03.005Z,2.20
2018-12-22T21:26:30.477Z,2.40
2018-12-22T21:28:57.950Z,2.20
2018-12-22T21:31:25.434Z,2.55
2018-12-22T21:33:52.899Z,2.22
2018-12-22T21:36:20.374Z,2.35
2018-12-22T21:38:47.827Z,2.50
2018-12-22T21:41:15.542Z,2.77
2018-12-22T21:43:43.017Z,1.90
2018-12-22T21:46:10.482Z,1.90
2018-12-22T21:48:37.926Z,2.40
2018-12-22T21:51:05.401Z,1.70
2018-12-22T21:53:32.861Z,1.95
2018-12-22T21:56:00.329Z,2.08
2018-12-22T21:58:27.803Z,1.62
2018-12-22T22:00:55.266Z,2.20
2018-12-22T22:03:22.732Z,3.10
2018-12-22T22:05:50.178Z,2.08
2018-12-22T22:08:17.673Z,2.77
2018-12-22T22:10:45.116Z,2.42
2018-12-22T22:13:12.594Z,3.08
2018-12-22T22:15:40.062Z,2.70
2018-12-22T22:18:07.535Z,2.55
2018-12-22T22:20:34.969Z,3.22
2018-12-22T22:23:02.469Z,2.70
2018-12-22T22:25:30.606Z,3.35
2018-12-22T22:27:58.089Z,3.30
2018-12-22T22:30:25.553Z,3.58
2018-12-22T22:32:53.031Z,3.47
2018-12-22T22:35:20.470Z,2.80
2018-12-22T22:37:47.944Z,3.25
2018-12-22T22:40:15.386Z,3.67
2018-12-22T22:42:42.866Z,3.45
2018-12-22T22:45:10.320Z,3.15
2018-12-22T22:47:37.858Z,2.75
2018-12-22T22:50:05.386Z,2.40
2018-12-22T22:52:32.826Z,4.33
2018-12-22T22:55:00.367Z,2.60
2018-12-22T22:57:27.839Z,3.67
2018-12-22T22:59:55.326Z,2.50
2018-12-22T23:02:22.761Z,2.95
2018-12-22T23:04:54.307Z,3.00
2018-12-22T23:07:19.693Z,3.50
2018-12-22T23:09:47.177Z,3.40
2018-12-22T23:12:14.652Z,3.22
2018-12-22T23:14:42.112Z,2.98
2018-12-22T23:17:09.626Z,2.80
2018-12-22T23:19:37.093Z,2.67
2018-12-22T23:22:04.559Z,3.12
2018-12-22T23:24:32.091Z,3.58
2018-12-22T23:26:59.538Z,2.92
2018-12-22T23:29:27.000Z,3.62
2018-12-22T23:31:54.454Z,2.77
2018-12-22T23:34:21.925Z,3.98
2018-12-22T23:36:49.369Z,3.00
2018-12-22T23:39:17.199Z,3.10
2018-12-22T23:41:44.658Z,3.17
2018-12-22T23:44:12.117Z,3.17
2018-12-22T23:46:39.581Z,2.67
2018-12-22T23:49:07.038Z,3.35
2018-12-22T23:51:34.505Z,3.30
2018-12-22T23:54:01.963Z,2.75
2018-12-22T23:56:29.420Z,3.22
2018-12-22T23:58:56.878Z,2.85
